createdAt,value
2023-04-20T00:00:53.399Z,2.72
2023-04-20T00:03:22.033Z,2.53
2023-04-20T00:05:50.264Z,2.65
2023-04-20T00:08:18.374Z,3.13
2023-04-20T00:10:46.678Z,2.70
2023-04-20T00:13:14.720Z,2.47
2023-04-20T00:15:42.788Z,2.50
2023-04-20T00:18:11.307Z,2.60
2023-04-20T00:20:39.585Z,2.70
2023-04-20T00:23:07.743Z,2.58
2023-04-20T00:25:35.946Z,2.30
2023-04-20T00:28:04.061Z,2.58
2023-04-20T00:30:32.085Z,3.70
2023-04-20T00:33:00.286Z,2.55
2023-04-20T00:35:28.320Z,3.53
2023-04-20T00:37:56.256Z,3.03
2023-04-20T00:40:26.796Z,2.75
2023-04-20T00:42:54.875Z,2.70
2023-04-20T00:45:24.836Z,2.67
2023-04-20T00:48:30.054Z,2.75
2023-04-20T00:51:16.961Z,2.70
2023-04-20T00:53:45.228Z,2.80
2023-04-20T00:56:16.862Z,2.60
2023-04-20T00:58:45.056Z,3.05
2023-04-20T01:01:17.888Z,2.22
2023-04-20T01:06:33.036Z,3.08
2023-04-20T01:09:01.852Z,3.17
2023-04-20T01:11:30.882Z,3.10
2023-04-20T01:13:58.910Z,3.03
2023-04-20T01:16:27.097Z,3.30
2023-04-20T01:18:55.220Z,3.85
2023-04-20T01:21:23.670Z,3.00
2023-04-20T01:23:53.498Z,3.08
2023-04-20T01:26:23.700Z,3.20
2023-04-20T01:28:52.291Z,2.80
2023-04-20T01:31:21.093Z,2.85
2023-04-20T01:33:50.006Z,3.65
2023-04-20T01:36:22.247Z,3.08
2023-04-20T01:38:50.513Z,2.90
2023-04-20T01:41:18.690Z,3.20
2023-04-20T01:43:46.725Z,2.75
2023-04-20T01:46:14.732Z,3.88
2023-04-20T01:48:42.974Z,2.75
2023-04-20T01:51:11.106Z,2.88
2023-04-20T01:53:40.455Z,3.05
2023-04-20T01:56:08.754Z,3.08
2023-04-20T01:58:37.254Z,3.15
2023-04-20T02:01:05.965Z,2.78
2023-04-20T02:03:34.936Z,2.65
2023-04-20T02:06:03.149Z,2.70
2023-04-20T02:08:31.252Z,3.38
2023-04-20T02:11:18.188Z,2.53
2023-04-20T02:13:46.291Z,2.30
2023-04-20T02:16:32.733Z,2.63
2023-04-20T02:19:01.316Z,2.63
2023-04-20T02:21:48.288Z,2.92
2023-04-20T02:24:16.414Z,2.60
2023-04-20T02:26:44.499Z,2.60
2023-04-20T02:29:12.589Z,2.45
2023-04-20T02:31:40.740Z,2.85
2023-04-20T02:34:09.740Z,2.80
2023-04-20T02:36:38.002Z,3.03
2023-04-20T02:39:06.170Z,2.92
2023-04-20T02:41:35.225Z,2.85
2023-04-20T02:44:04.508Z,2.75
2023-04-20T02:46:35.201Z,2.75
2023-04-20T02:49:03.808Z,2.42
2023-04-20T02:51:34.510Z,2.58
2023-04-20T02:54:02.537Z,3.38
2023-04-20T02:56:31.185Z,2.70
2023-04-20T02:59:03.994Z,2.50
2023-04-20T03:01:50.623Z,2.90
2023-04-20T03:04:26.275Z,2.35
2023-04-20T03:07:24.159Z,2.38
2023-04-20T03:09:53.256Z,2.85
2023-04-20T03:12:56.655Z,2.83
2023-04-20T03:15:35.363Z,2.88
2023-04-20T03:18:22.155Z,2.67
2023-04-20T03:20:50.390Z,2.70
2023-04-20T03:23:18.623Z,2.63
2023-04-20T03:25:46.772Z,2.83
2023-04-20T03:28:34.769Z,2.70
2023-04-20T03:31:03.610Z,3.33
2023-04-20T03:33:32.206Z,2.70
2023-04-20T03:36:01.239Z,3.05
2023-04-20T03:38:30.712Z,2.60
2023-04-20T03:40:58.947Z,2.50
2023-04-20T03:43:27.305Z,2.60
2023-04-20T03:45:56.120Z,2.88
2023-04-20T03:48:24.305Z,2.47
2023-04-20T03:50:53.699Z,2.58
2023-04-20T03:53:22.087Z,2.40
2023-04-20T03:55:50.504Z,2.70
2023-04-20T03:58:22.024Z,3.70
2023-04-20T04:01:04.487Z,2.33
2023-04-20T04:03:34.481Z,2.55
2023-04-20T04:06:04.212Z,2.53
2023-04-20T04:08:33.966Z,3.00
2023-04-20T04:11:02.329Z,2.70
2023-04-20T04:13:30.949Z,2.75
2023-04-20T04:16:00.156Z,2.60
2023-04-20T04:18:32.777Z,2.60
2023-04-20T04:23:57.846Z,2.90
2023-04-20T04:26:39.610Z,2.50
2023-04-20T04:29:09.293Z,2.38
2023-04-20T04:31:37.751Z,2.30
2023-04-20T04:34:13.918Z,2.53
2023-04-20T04:36:46.987Z,2.50
2023-04-20T04:39:19.153Z,2.50
2023-04-20T04:41:55.955Z,3.00
2023-04-20T04:44:32.275Z,2.67
2023-04-20T04:47:03.589Z,2.45
2023-04-20T04:49:32.614Z,2.97
2023-04-20T04:52:01.271Z,2.65
2023-04-20T04:54:29.352Z,3.03
2023-04-20T04:56:58.529Z,3.17
2023-04-20T04:59:26.548Z,2.70
2023-04-20T05:01:54.590Z,2.88
2023-04-20T05:04:22.774Z,3.13
2023-04-20T05:06:50.820Z,2.63
2023-04-20T05:09:19.150Z,3.30
2023-04-20T05:11:48.145Z,2.40
2023-04-20T05:14:16.356Z,3.10
2023-04-20T05:16:44.549Z,2.78
2023-04-20T05:19:12.724Z,3.13
2023-04-20T05:21:40.800Z,3.20
2023-04-20T05:24:08.897Z,2.63
2023-04-20T05:26:36.922Z,3.22
2023-04-20T05:29:05.059Z,3.10
2023-04-20T05:31:33.553Z,2.67
2023-04-20T05:34:02.715Z,2.60
2023-04-20T05:36:31.262Z,2.80
2023-04-20T05:38:59.564Z,2.47
2023-04-20T05:41:27.770Z,2.13
2023-04-20T05:43:57.057Z,2.45
2023-04-20T05:46:25.216Z,2.45
2023-04-20T05:48:53.365Z,2.30
2023-04-20T05:51:22.732Z,2.22
2023-04-20T05:53:50.840Z,2.17
2023-04-20T05:56:18.972Z,2.55
2023-04-20T05:58:47.621Z,2.33
2023-04-20T06:01:15.795Z,2.05
2023-04-20T06:03:43.863Z,3.03
2023-04-20T06:06:12.033Z,2.10
2023-04-20T06:08:40.137Z,2.50
2023-04-20T06:11:08.397Z,2.60
2023-04-20T06:13:36.477Z,2.17
2023-04-20T06:16:09.718Z,2.50
2023-04-20T06:18:37.924Z,2.40
2023-04-20T06:21:06.031Z,2.50
2023-04-20T06:23:34.182Z,2.47
2023-04-20T06:28:48.810Z,2.38
2023-04-20T06:34:02.947Z,2.58
2023-04-20T06:36:31.416Z,2.55
2023-04-20T06:38:59.401Z,2.45
2023-04-20T06:41:27.752Z,2.78
2023-04-20T06:43:55.806Z,2.20
2023-04-20T06:46:42.505Z,2.58
2023-04-20T06:49:10.529Z,2.58
2023-04-20T06:51:39.746Z,2.67
2023-04-20T06:54:07.824Z,2.45
2023-04-20T06:56:35.995Z,2.90
2023-04-20T06:59:04.065Z,2.60
2023-04-20T07:01:32.309Z,2.33
2023-04-20T07:04:00.466Z,2.58
2023-04-20T07:06:28.819Z,2.78
2023-04-20T07:08:56.973Z,2.78
2023-04-20T07:11:25.764Z,3.20
2023-04-20T07:13:53.813Z,2.33
2023-04-20T07:16:21.902Z,3.10
2023-04-20T07:18:49.923Z,2.38
2023-04-20T07:21:18.011Z,2.53
2023-04-20T07:23:45.969Z,2.05
2023-04-20T07:26:14.062Z,2.10
2023-04-20T07:28:42.824Z,1.95
2023-04-20T07:31:10.956Z,1.83
2023-04-20T07:33:38.966Z,1.92
2023-04-20T07:36:07.368Z,1.95
2023-04-20T07:38:35.440Z,2.10
2023-04-20T07:41:03.881Z,2.10
2023-04-20T07:43:50.793Z,2.40
2023-04-20T07:46:22.894Z,2.25
2023-04-20T07:48:51.144Z,2.30
2023-04-20T07:51:19.119Z,2.13
2023-04-20T07:53:47.250Z,2.40
2023-04-20T07:56:15.254Z,2.00
2023-04-20T07:58:43.279Z,2.10
2023-04-20T08:01:11.765Z,2.42
2023-04-20T08:03:40.178Z,2.25
2023-04-20T08:06:09.534Z,2.40
2023-04-20T08:08:37.614Z,2.38
2023-04-20T08:11:08.282Z,2.40
2023-04-20T08:13:37.563Z,1.90
2023-04-20T08:16:05.901Z,2.58
2023-04-20T08:18:33.967Z,2.00
2023-04-20T08:21:01.945Z,2.05
2023-04-20T08:23:30.046Z,2.10
2023-04-20T08:25:58.259Z,1.75
2023-04-20T08:31:14.400Z,1.98
2023-04-20T08:33:42.640Z,2.20
2023-04-20T08:36:11.043Z,2.00
2023-04-20T08:38:39.267Z,2.30
2023-04-20T08:41:07.375Z,2.40
2023-04-20T08:43:36.984Z,2.00
2023-04-20T08:46:05.368Z,1.70
2023-04-20T08:48:36.735Z,2.08
2023-04-20T08:51:05.607Z,2.10
2023-04-20T08:53:33.947Z,1.35
2023-04-20T08:56:02.002Z,1.75
2023-04-20T08:58:34.851Z,2.03
2023-04-20T09:01:02.930Z,1.83
2023-04-20T09:03:36.379Z,2.42
2023-04-20T09:06:06.656Z,2.08
2023-04-20T09:08:40.137Z,1.80
2023-04-20T09:11:27.915Z,1.58
2023-04-20T09:13:59.423Z,1.48
2023-04-20T09:16:27.677Z,1.75
2023-04-20T09:18:57.167Z,2.22
2023-04-20T09:21:28.400Z,1.90
2023-04-20T09:24:03.819Z,1.20
2023-04-20T09:26:36.563Z,1.63
2023-04-20T09:29:16.308Z,1.38
2023-04-20T09:31:44.448Z,1.27
2023-04-20T09:34:13.232Z,1.60
2023-04-20T09:36:43.450Z,1.60
2023-04-20T09:39:12.531Z,1.50
2023-04-20T09:41:42.149Z,1.52
2023-04-20T09:44:28.771Z,1.70
2023-04-20T09:46:57.082Z,1.33
2023-04-20T09:49:26.374Z,1.40
2023-04-20T09:51:54.877Z,1.58
2023-04-20T09:54:23.029Z,1.50
2023-04-20T09:57:10.672Z,1.95
2023-04-20T09:59:41.246Z,1.50
2023-04-20T10:02:11.911Z,1.45
2023-04-20T10:04:53.818Z,1.40
2023-04-20T10:07:29.946Z,1.35
2023-04-20T10:10:24.295Z,1.60
2023-04-20T10:12:54.643Z,1.60
2023-04-20T10:15:24.514Z,1.70
2023-04-20T10:17:53.767Z,1.60
2023-04-20T10:20:27.258Z,1.33
2023-04-20T10:23:16.685Z,1.52
2023-04-20T10:25:57.393Z,1.88
2023-04-20T10:28:25.537Z,1.40
2023-04-20T10:30:54.222Z,1.50
2023-04-20T10:33:23.237Z,1.25
2023-04-20T10:35:55.230Z,1.65
2023-04-20T10:38:34.753Z,1.40
2023-04-20T10:41:07.491Z,1.27
2023-04-20T10:43:36.206Z,1.27
2023-04-20T10:46:20.472Z,1.23
2023-04-20T10:48:56.524Z,1.40
2023-04-20T10:51:25.647Z,1.50
2023-04-20T10:54:08.336Z,1.27
2023-04-20T10:56:42.541Z,1.30
2023-04-20T10:59:15.086Z,1.45
2023-04-20T11:02:01.909Z,1.48
2023-04-20T11:04:32.572Z,1.90
2023-04-20T11:07:09.289Z,1.38
2023-04-20T11:09:58.704Z,1.50
2023-04-20T11:14:58.290Z,1.52
2023-04-20T11:17:36.739Z,1.48
2023-04-20T11:20:14.257Z,1.50
2023-04-20T11:22:43.822Z,1.60
2023-04-20T11:25:13.042Z,1.30
2023-04-20T11:27:42.345Z,1.30
2023-04-20T11:30:11.018Z,1.30
2023-04-20T11:32:39.623Z,1.30
2023-04-20T11:35:11.230Z,1.33
2023-04-20T11:37:51.698Z,1.45
2023-04-20T11:40:20.223Z,1.45
2023-04-20T11:42:48.285Z,1.40
2023-04-20T11:45:16.662Z,1.35
2023-04-20T11:47:46.166Z,1.65
2023-04-20T11:50:14.681Z,1.20
2023-04-20T11:52:42.736Z,1.75
2023-04-20T11:55:11.861Z,1.60
2023-04-20T11:57:39.981Z,1.30
2023-04-20T12:00:08.731Z,1.55
2023-04-20T12:02:42.564Z,1.35
2023-04-20T12:05:12.020Z,1.20
2023-04-20T12:07:40.397Z,1.35
2023-04-20T12:10:09.099Z,1.55
2023-04-20T12:12:38.758Z,1.60
2023-04-20T12:15:07.795Z,1.52
2023-04-20T12:17:35.945Z,1.77
2023-04-20T12:20:09.036Z,1.50
2023-04-20T12:22:37.066Z,1.77
2023-04-20T12:25:06.468Z,1.52
2023-04-20T12:27:34.567Z,1.20
2023-04-20T12:30:02.742Z,1.85
2023-04-20T12:32:50.962Z,1.33
2023-04-20T12:38:04.230Z,1.80
2023-04-20T12:40:32.278Z,1.38
2023-04-20T12:43:00.282Z,1.30
2023-04-20T12:45:28.381Z,1.30
2023-04-20T12:47:58.448Z,1.13
2023-04-20T12:50:27.869Z,1.50
2023-04-20T12:52:56.603Z,1.48
2023-04-20T12:55:25.818Z,1.33
2023-04-20T12:57:53.858Z,1.35
2023-04-20T13:00:22.126Z,1.55
2023-04-20T13:02:50.490Z,1.48
2023-04-20T13:05:19.918Z,1.30
2023-04-20T13:07:48.062Z,1.50
2023-04-20T13:10:16.352Z,1.63
2023-04-20T13:12:44.391Z,1.30
2023-04-20T13:15:13.436Z,1.10
2023-04-20T13:17:41.616Z,1.40
2023-04-20T13:20:10.250Z,1.40
2023-04-20T13:22:50.440Z,1.17
2023-04-20T13:25:26.396Z,1.30
2023-04-20T13:27:55.450Z,1.20
2023-04-20T13:30:24.572Z,1.20
2023-04-20T13:32:53.357Z,1.30
2023-04-20T13:35:21.548Z,1.35
2023-04-20T13:37:49.997Z,1.10
2023-04-20T13:40:18.207Z,1.13
2023-04-20T13:42:46.191Z,1.48
2023-04-20T13:45:14.305Z,2.03
2023-04-20T13:47:42.394Z,1.65
2023-04-20T13:50:11.219Z,1.40
2023-04-20T13:52:39.564Z,1.23
2023-04-20T13:55:07.930Z,1.13
2023-04-20T13:57:36.078Z,1.15
2023-04-20T14:00:05.258Z,1.17
2023-04-20T14:02:33.842Z,1.17
2023-04-20T14:05:04.172Z,1.17
2023-04-20T14:07:32.883Z,1.65
2023-04-20T14:10:00.899Z,1.45
2023-04-20T14:12:29.196Z,1.35
2023-04-20T14:14:58.797Z,1.30
2023-04-20T14:17:45.979Z,1.30
2023-04-20T14:20:14.080Z,1.50
2023-04-20T14:22:43.913Z,1.42
2023-04-20T14:25:12.094Z,1.38
2023-04-20T14:27:40.174Z,1.60
2023-04-20T14:30:09.164Z,1.08
2023-04-20T14:32:37.437Z,1.50
2023-04-20T14:35:06.252Z,1.25
2023-04-20T14:37:34.394Z,1.40
2023-04-20T14:40:02.412Z,1.48
2023-04-20T14:42:30.608Z,1.38
2023-04-20T14:44:58.584Z,1.40
2023-04-20T14:47:26.698Z,1.10
2023-04-20T14:49:55.808Z,1.23
2023-04-20T14:52:23.996Z,1.20
2023-04-20T14:54:52.020Z,1.10
2023-04-20T14:57:19.957Z,1.30
2023-04-20T14:59:48.020Z,1.30
2023-04-20T15:02:16.245Z,1.27
2023-04-20T15:04:45.163Z,1.30
2023-04-20T15:09:58.353Z,1.35
2023-04-20T15:15:47.006Z,1.45
2023-04-20T15:18:17.244Z,1.10
2023-04-20T15:20:45.945Z,1.40
2023-04-20T15:23:14.187Z,1.20
2023-04-20T15:25:42.249Z,1.35
2023-04-20T15:28:11.354Z,1.38
2023-04-20T15:30:39.375Z,1.38
2023-04-20T15:33:07.819Z,1.27
2023-04-20T15:35:35.966Z,1.30
2023-04-20T15:38:04.156Z,1.05
2023-04-20T15:40:32.284Z,1.17
2023-04-20T15:43:19.045Z,0.93
2023-04-20T15:45:47.289Z,1.00
2023-04-20T15:48:15.335Z,1.40
2023-04-20T15:50:43.406Z,1.00
2023-04-20T15:53:11.416Z,1.38
2023-04-20T15:55:40.300Z,1.10
2023-04-20T15:58:08.283Z,1.20
2023-04-20T16:00:36.548Z,1.17
2023-04-20T16:03:04.936Z,0.98
2023-04-20T16:05:51.815Z,0.98
2023-04-20T16:08:57.368Z,1.35
2023-04-20T16:11:25.664Z,1.45
2023-04-20T16:13:56.409Z,1.05
2023-04-20T16:16:24.491Z,1.10
2023-04-20T16:18:52.823Z,1.50
2023-04-20T16:24:07.848Z,1.00
2023-04-20T16:26:36.397Z,1.30
2023-04-20T16:29:04.478Z,1.05
2023-04-20T16:31:32.558Z,0.90
2023-04-20T16:34:00.923Z,1.15
2023-04-20T16:36:47.121Z,1.30
2023-04-20T16:39:15.208Z,1.20
2023-04-20T16:41:43.213Z,1.23
2023-04-20T16:44:13.859Z,1.40
2023-04-20T16:46:42.214Z,1.20
2023-04-20T16:49:10.424Z,1.20
2023-04-20T16:51:38.384Z,1.65
2023-04-20T16:56:51.894Z,1.17
2023-04-20T16:59:19.906Z,1.13
2023-04-20T17:01:49.493Z,0.93
2023-04-20T17:04:18.729Z,1.17
2023-04-20T17:06:47.384Z,0.80
2023-04-20T17:09:15.532Z,0.93
2023-04-20T17:11:43.616Z,1.13
2023-04-20T17:14:11.738Z,1.02
2023-04-20T17:16:39.732Z,1.00
2023-04-20T17:19:07.730Z,0.90
2023-04-20T17:21:35.894Z,0.95
2023-04-20T17:24:04.100Z,0.90
2023-04-20T17:26:32.097Z,1.20
2023-04-20T17:29:00.574Z,0.85
2023-04-20T17:31:28.678Z,0.82
2023-04-20T17:33:56.626Z,1.17
2023-04-20T17:36:24.653Z,2.13
2023-04-20T17:38:52.877Z,0.77
2023-04-20T17:41:21.085Z,0.90
2023-04-20T17:43:51.334Z,1.02
2023-04-20T17:46:19.402Z,1.10
2023-04-20T17:48:47.470Z,0.98
2023-04-20T17:51:15.671Z,0.73
2023-04-20T17:53:43.746Z,1.30
2023-04-20T17:56:12.133Z,1.27
2023-04-20T17:58:40.113Z,1.20
2023-04-20T18:01:08.307Z,1.25
2023-04-20T18:03:36.610Z,1.75
2023-04-20T18:06:04.929Z,1.35
2023-04-20T18:08:34.742Z,0.70
2023-04-20T18:11:02.855Z,1.02
2023-04-20T18:13:30.966Z,1.30
2023-04-20T18:16:00.056Z,1.50
2023-04-20T18:18:28.100Z,1.75
2023-04-20T18:20:56.172Z,1.40
2023-04-20T18:23:24.290Z,1.23
2023-04-20T18:26:17.516Z,1.20
2023-04-20T18:28:46.105Z,1.33
2023-04-20T18:31:32.331Z,0.90
2023-04-20T18:34:00.429Z,1.20
2023-04-20T18:36:29.918Z,1.27
2023-04-20T18:38:58.020Z,1.10
2023-04-20T18:41:27.652Z,0.85
2023-04-20T18:43:56.377Z,1.30
2023-04-20T18:49:11.797Z,0.77
2023-04-20T18:51:39.840Z,1.15
2023-04-20T18:54:07.960Z,0.80
2023-04-20T18:56:38.829Z,1.40
2023-04-20T18:59:08.721Z,1.15
2023-04-20T19:01:40.760Z,1.38
2023-04-20T19:04:09.139Z,1.50
2023-04-20T19:06:37.338Z,1.00
2023-04-20T19:09:07.865Z,1.20
2023-04-20T19:11:36.472Z,1.35
2023-04-20T19:14:04.639Z,1.20
2023-04-20T19:16:34.089Z,1.35
2023-04-20T19:19:04.168Z,1.38
2023-04-20T19:21:32.933Z,1.40
2023-04-20T19:24:01.024Z,1.00
2023-04-20T19:26:29.109Z,1.20
2023-04-20T19:28:59.590Z,1.10
2023-04-20T19:31:32.420Z,0.90
2023-04-20T19:34:00.673Z,0.82
2023-04-20T19:36:28.749Z,1.13
2023-04-20T19:38:56.852Z,0.95
2023-04-20T19:41:26.438Z,1.40
2023-04-20T19:43:54.483Z,1.25
2023-04-20T19:46:22.821Z,1.33
2023-04-20T19:48:50.971Z,1.30
2023-04-20T19:51:19.642Z,1.17
2023-04-20T19:53:47.593Z,1.00
2023-04-20T19:56:15.649Z,1.77
2023-04-20T19:58:43.645Z,1.50
2023-04-20T20:01:11.833Z,2.50
2023-04-20T20:03:40.227Z,1.45
2023-04-20T20:06:08.713Z,1.20
2023-04-20T20:08:36.804Z,0.82
2023-04-20T20:11:05.083Z,1.05
2023-04-20T20:13:33.077Z,0.80
2023-04-20T20:16:01.136Z,1.60
2023-04-20T20:18:29.256Z,1.10
2023-04-20T20:20:57.229Z,0.70
2023-04-20T20:23:25.577Z,0.90
2023-04-20T20:25:53.561Z,0.80
2023-04-20T20:31:25.817Z,1.40
2023-04-20T20:33:54.012Z,0.50
2023-04-20T20:36:22.612Z,0.70
2023-04-20T20:38:50.984Z,0.60
2023-04-20T20:41:22.103Z,0.70
2023-04-20T20:43:50.410Z,0.43
2023-04-20T20:46:18.608Z,1.00
2023-04-20T20:48:46.912Z,0.60
2023-04-20T20:51:16.383Z,1.23
2023-04-20T20:53:44.534Z,1.20
2023-04-20T20:56:12.581Z,0.82
2023-04-20T20:58:40.662Z,0.80
2023-04-20T21:01:08.704Z,0.55
2023-04-20T21:03:37.257Z,0.73
2023-04-20T21:06:06.123Z,0.93
2023-04-20T21:08:34.856Z,1.00
2023-04-20T21:11:02.865Z,0.85
2023-04-20T21:13:30.914Z,0.60
2023-04-20T21:15:59.124Z,0.65
2023-04-20T21:18:27.286Z,0.73
2023-04-20T21:20:55.298Z,1.08
2023-04-20T21:23:41.729Z,1.13
2023-04-20T21:26:09.690Z,0.90
2023-04-20T21:28:37.616Z,0.80
2023-04-20T21:31:05.737Z,0.88
2023-04-20T21:33:34.916Z,0.90
2023-04-20T21:36:03.088Z,0.57
2023-04-20T21:38:31.164Z,0.65
2023-04-20T21:40:59.262Z,1.30
2023-04-20T21:43:27.251Z,0.40
2023-04-20T21:45:55.558Z,0.63
2023-04-20T21:48:23.625Z,0.50
2023-04-20T21:50:51.647Z,0.38
2023-04-20T21:53:19.691Z,0.50
2023-04-20T21:55:47.703Z,0.60
2023-04-20T21:58:16.175Z,0.63
2023-04-20T22:00:44.202Z,0.38
2023-04-20T22:03:12.315Z,0.50
2023-04-20T22:05:40.692Z,0.63
2023-04-20T22:08:08.655Z,1.08
2023-04-20T22:10:36.807Z,0.50
2023-04-20T22:13:04.883Z,0.68
2023-04-20T22:15:33.068Z,0.50
2023-04-20T22:18:01.087Z,0.40
2023-04-20T22:20:29.193Z,0.40
2023-04-20T22:22:57.781Z,0.40
2023-04-20T22:25:44.608Z,0.50
2023-04-20T22:28:12.672Z,0.52
2023-04-20T22:30:40.806Z,0.40
2023-04-20T22:33:09.181Z,0.57
2023-04-20T22:35:37.252Z,0.57
2023-04-20T22:38:05.334Z,0.43
2023-04-20T22:40:33.367Z,0.55
2023-04-20T22:43:01.385Z,0.50
2023-04-20T22:45:29.627Z,0.60
2023-04-20T22:47:57.655Z,0.68
2023-04-20T22:50:25.773Z,0.50
2023-04-20T22:52:53.886Z,0.50
2023-04-20T22:55:21.884Z,0.50
2023-04-20T22:57:49.888Z,0.47
2023-04-20T23:00:18.171Z,0.52
2023-04-20T23:02:46.356Z,0.75
2023-04-20T23:05:19.230Z,0.70
2023-04-20T23:07:47.366Z,0.40
2023-04-20T23:10:16.540Z,0.70
2023-04-20T23:12:44.938Z,0.70
2023-04-20T23:15:31.844Z,0.88
2023-04-20T23:18:00.094Z,0.60
2023-04-20T23:20:28.973Z,0.70
2023-04-20T23:22:57.004Z,0.40
2023-04-20T23:25:25.076Z,0.40
2023-04-20T23:27:53.027Z,0.55
2023-04-20T23:30:21.282Z,0.60
2023-04-20T23:32:49.329Z,0.60
2023-04-20T23:35:19.093Z,1.10
2023-04-20T23:37:47.126Z,0.50
2023-04-20T23:40:15.256Z,0.88
2023-04-20T23:42:43.205Z,0.47
2023-04-20T23:45:12.162Z,0.80
2023-04-20T23:47:40.293Z,0.73
2023-04-20T23:50:08.998Z,0.70
2023-04-20T23:52:37.294Z,0.73
2023-04-20T23:55:05.980Z,0.77
2023-04-20T23:57:53.251Z,0.43
